Time;durP1;ratioP1;P1;durP2;ratioP2;P2;SDS_P1;SDS_P2;PMS_P1;PMS_P2;Temp;Humidity;BMP_temperature;BMP_pressure;BME280_temperature;BME280_humidity;BME280_pressure;Samples;Min_cycle;Max_cycle;Signal;HPM_P1;HPM_P2
2022/03/01 00:01:19;;;;;;;;;;;4.60;44.00;;;;;;5056182;28;19916;-61
2022/03/01 00:03:44;;;;;;;;;;;4.70;43.50;;;;;;5056186;28;19919;-61
2022/03/01 00:06:10;;;;;;;;;;;4.70;43.80;;;;;;5056019;28;20043;-64
2022/03/01 00:08:35;;;;;;;;;;;4.60;43.70;;;;;;5062040;28;19913;-62
2022/03/01 00:11:01;;;;;;;;;;;4.70;43.40;;;;;;5067818;28;19909;-60
2022/03/01 00:13:26;;;;;;;;;;;4.70;43.00;;;;;;5067777;28;19916;-61
2022/03/01 00:15:52;;;;;;;;;;;4.70;43.00;;;;;;5067177;28;19913;-61
2022/03/01 00:18:17;;;;;;;;;;;4.60;43.20;;;;;;5067637;28;19916;-63
2022/03/01 00:20:43;;;;;;;;;;;4.70;43.20;;;;;;5068394;28;19921;-61
2022/03/01 00:23:09;;;;;;;;;;;4.80;43.10;;;;;;5050857;28;19909;-63
2022/03/01 00:25:34;;;;;;;;;;;4.90;43.20;;;;;;5069084;28;19915;-61
2022/03/01 00:28:00;;;;;;;;;;;4.90;43.40;;;;;;5069148;28;19944;-61
2022/03/01 00:30:25;;;;;;;;;;;4.90;43.30;;;;;;5057138;28;19916;-60
2022/03/01 00:32:51;;;;;;;;;;;5.00;43.30;;;;;;5055127;28;19916;-61
2022/03/01 00:35:17;;;;;;;;;;;5.00;43.20;;;;;;5055047;28;20394;-61
2022/03/01 00:37:42;;;;;;;;;;;5.10;42.90;;;;;;5055111;28;20311;-63
2022/03/01 00:40:08;;;;;;;;;;;5.10;43.10;;;;;;5054864;28;19935;-63
2022/03/01 00:42:36;;;;;;;;;;;5.00;43.30;;;;;;5054031;28;21342;-60
2022/03/01 00:45:01;;;;;;;;;;;5.00;43.10;;;;;;5054598;28;20000;-65
2022/03/01 00:47:27;;;;;;;;;;;4.90;43.50;;;;;;5055025;28;19915;-61
2022/03/01 00:49:52;;;;;;;;;;;4.80;43.70;;;;;;5054612;28;19964;-61
2022/03/01 00:52:18;;;;;;;;;;;4.80;43.60;;;;;;5054783;28;19913;-64
2022/03/01 00:54:43;;;;;;;;;;;4.90;43.60;;;;;;5054556;28;19916;-61
2022/03/01 00:57:09;;;;;;;;;;;4.90;43.70;;;;;;5054418;28;19999;-60
2022/03/01 00:59:35;;;;;;;;;;;4.90;43.90;;;;;;5054247;28;19970;-60
2022/03/01 01:02:00;;;;;;;;;;;4.90;43.80;;;;;;5054310;28;19908;-61
2022/03/01 01:04:26;;;;;;;;;;;5.00;43.70;;;;;;5054359;28;19909;-64
2022/03/01 01:06:51;;;;;;;;;;;5.10;43.60;;;;;;5053091;28;19919;-60
2022/03/01 01:09:17;;;;;;;;;;;4.90;43.90;;;;;;5054018;28;19909;-60
2022/03/01 01:11:42;;;;;;;;;;;5.00;43.70;;;;;;5053889;28;19909;-61
2022/03/01 01:14:08;;;;;;;;;;;5.00;43.60;;;;;;5054095;28;19967;-60
2022/03/01 01:16:34;;;;;;;;;;;4.90;43.60;;;;;;5054075;28;19955;-61
2022/03/01 01:18:59;;;;;;;;;;;4.90;43.60;;;;;;5054014;28;19909;-61
2022/03/01 01:22:39;;;;;;;;;;;4.90;43.60;;;;;;5054181;28;19963;-61
2022/03/01 01:24:11;;;;;;;;;;;4.90;43.70;;;;;;5054057;28;19909;-61
2022/03/01 01:26:36;;;;;;;;;;;5.00;43.60;;;;;;5053766;28;20276;-61
2022/03/01 01:29:02;;;;;;;;;;;5.00;43.70;;;;;;5053817;28;20312;-63
2022/03/01 01:31:27;;;;;;;;;;;5.10;43.70;;;;;;5053859;28;19909;-61
2022/03/01 01:33:53;;;;;;;;;;;5.00;44.00;;;;;;5053796;28;19913;-61
2022/03/01 01:36:19;;;;;;;;;;;5.10;43.50;;;;;;5052753;28;20321;-61
2022/03/01 01:38:45;;;;;;;;;;;5.20;43.60;;;;;;5054084;28;19920;-60
2022/03/01 01:41:10;;;;;;;;;;;5.20;43.80;;;;;;5053985;28;19909;-61
2022/03/01 01:43:36;;;;;;;;;;;5.20;43.80;;;;;;5054043;28;19909;-63
2022/03/01 01:46:01;;;;;;;;;;;5.20;43.90;;;;;;5036302;28;19980;-61
2022/03/01 01:48:27;;;;;;;;;;;5.20;43.90;;;;;;5054471;28;19909;-64
2022/03/01 01:50:52;;;;;;;;;;;5.20;44.00;;;;;;5053668;28;19995;-62
2022/03/01 01:53:19;;;;;;;;;;;5.10;44.50;;;;;;5035580;28;20063;-63
2022/03/01 01:55:45;;;;;;;;;;;5.00;44.90;;;;;;5053749;28;19912;-61
2022/03/01 01:58:10;;;;;;;;;;;4.90;45.20;;;;;;5053793;28;19909;-61
2022/03/01 02:00:36;;;;;;;;;;;4.80;46.10;;;;;;5053597;28;19916;-64
2022/03/01 02:03:01;;;;;;;;;;;4.70;47.00;;;;;;5053691;28;19963;-61
2022/03/01 02:05:28;;;;;;;;;;;4.50;47.80;;;;;;5054048;28;19909;-60
2022/03/01 02:07:53;;;;;;;;;;;4.60;47.00;;;;;;5053886;28;20001;-60
2022/03/01 02:10:19;;;;;;;;;;;4.50;47.70;;;;;;5053646;28;19948;-60
2022/03/01 02:12:45;;;;;;;;;;;4.40;48.80;;;;;;5053912;28;19924;-65
2022/03/01 02:15:10;;;;;;;;;;;4.10;49.20;;;;;;5053820;28;19944;-62
2022/03/01 02:17:38;;;;;;;;;;;4.00;49.30;;;;;;5053274;28;20419;-61
2022/03/01 02:20:11;;;;;;;;;;;3.90;49.00;;;;;;5053142;28;19925;-60
2022/03/01 02:22:37;;;;;;;;;;;4.10;49.20;;;;;;5053457;28;19916;-61
2022/03/01 02:25:02;;;;;;;;;;;4.00;49.90;;;;;;5053412;28;19917;-61
2022/03/01 02:27:28;;;;;;;;;;;4.10;50.10;;;;;;5056917;28;19909;-60
2022/03/01 02:29:53;;;;;;;;;;;4.00;49.20;;;;;;5057153;28;20364;-61
2022/03/01 02:32:19;;;;;;;;;;;4.30;49.30;;;;;;5056071;28;19917;-61
2022/03/01 02:34:47;;;;;;;;;;;4.20;49.30;;;;;;5055099;28;20440;-60
2022/03/01 02:37:13;;;;;;;;;;;4.10;50.40;;;;;;5055782;28;19913;-61
2022/03/01 02:39:38;;;;;;;;;;;4.00;50.50;;;;;;5053796;28;20312;-61
2022/03/01 02:42:04;;;;;;;;;;;4.20;48.40;;;;;;5053097;28;19913;-60
2022/03/01 02:44:30;;;;;;;;;;;4.20;49.20;;;;;;5052903;28;19916;-60
2022/03/01 02:46:55;;;;;;;;;;;4.20;49.90;;;;;;5052753;28;19908;-61
2022/03/01 02:49:21;;;;;;;;;;;4.10;50.30;;;;;;5052971;28;19916;-61
2022/03/01 02:51:46;;;;;;;;;;;4.10;50.60;;;;;;5053987;28;19909;-63
2022/03/01 02:54:12;;;;;;;;;;;3.90;50.80;;;;;;5056745;28;20308;-60
2022/03/01 02:56:39;;;;;;;;;;;3.70;51.10;;;;;;5056629;28;19909;-61
2022/03/01 02:59:05;;;;;;;;;;;3.70;50.60;;;;;;5056849;28;19909;-60
2022/03/01 03:01:30;;;;;;;;;;;3.80;50.80;;;;;;5056793;28;19909;-60
2022/03/01 03:03:57;;;;;;;;;;;3.80;51.80;;;;;;5056711;28;19909;-60
2022/03/01 03:06:23;;;;;;;;;;;3.90;51.40;;;;;;5056325;28;19913;-60
2022/03/01 03:08:48;;;;;;;;;;;3.70;51.80;;;;;;5056394;28;19916;-61
2022/03/01 03:11:14;;;;;;;;;;;3.80;51.30;;;;;;5056743;28;19913;-61
2022/03/01 03:13:40;;;;;;;;;;;3.80;51.50;;;;;;5056210;28;19916;-60
2022/03/01 03:16:07;;;;;;;;;;;3.80;50.80;;;;;;5056293;28;19909;-60
2022/03/01 03:18:33;;;;;;;;;;;3.80;49.70;;;;;;5056278;28;19919;-64
2022/03/01 03:20:59;;;;;;;;;;;4.00;48.40;;;;;;5056184;28;19920;-61
2022/03/01 03:23:24;;;;;;;;;;;4.40;46.70;;;;;;5056197;28;19916;-60
2022/03/01 03:25:50;;;;;;;;;;;4.70;45.60;;;;;;5056127;28;19995;-61
2022/03/01 03:28:16;;;;;;;;;;;4.80;45.40;;;;;;5056356;28;20011;-60
2022/03/01 03:30:41;;;;;;;;;;;4.70;45.40;;;;;;5056448;28;19917;-60
2022/03/01 03:33:07;;;;;;;;;;;4.70;45.20;;;;;;5055975;28;19917;-61
2022/03/01 03:35:32;;;;;;;;;;;4.80;45.20;;;;;;5056143;28;20381;-63
2022/03/01 03:37:58;;;;;;;;;;;4.90;44.60;;;;;;5055985;28;19913;-61
2022/03/01 03:40:24;;;;;;;;;;;4.90;44.60;;;;;;5055961;28;19916;-61
2022/03/01 03:42:49;;;;;;;;;;;4.90;44.80;;;;;;5056077;28;19924;-60
2022/03/01 03:45:15;;;;;;;;;;;4.80;45.00;;;;;;5055919;28;19938;-60
2022/03/01 03:47:41;;;;;;;;;;;4.80;45.10;;;;;;5055959;28;19909;-60
2022/03/01 03:50:09;;;;;;;;;;;4.80;45.20;;;;;;5055606;28;19991;-64
2022/03/01 03:52:36;;;;;;;;;;;4.90;45.20;;;;;;5055492;28;20168;-60
2022/03/01 03:55:01;;;;;;;;;;;5.00;44.90;;;;;;5055535;28;19955;-60
2022/03/01 03:57:27;;;;;;;;;;;5.10;44.70;;;;;;5055581;28;19912;-65
2022/03/01 03:59:53;;;;;;;;;;;5.10;44.70;;;;;;5055625;28;20380;-62
2022/03/01 04:02:18;;;;;;;;;;;5.00;44.30;;;;;;5055697;28;19909;-61
2022/03/01 04:04:44;;;;;;;;;;;4.90;44.70;;;;;;5054199;28;19995;-60
2022/03/01 04:07:10;;;;;;;;;;;5.00;45.50;;;;;;5054514;28;19944;-60
2022/03/01 04:09:35;;;;;;;;;;;4.70;46.10;;;;;;5055382;28;19915;-60
2022/03/01 04:12:01;;;;;;;;;;;4.80;45.60;;;;;;5055563;28;20356;-60
2022/03/01 04:14:26;;;;;;;;;;;4.80;46.10;;;;;;5055309;28;19913;-61
2022/03/01 04:16:52;;;;;;;;;;;4.50;47.30;;;;;;5054015;28;19912;-60
2022/03/01 04:19:18;;;;;;;;;;;4.70;46.30;;;;;;5055327;28;19913;-60
2022/03/01 04:21:44;;;;;;;;;;;4.70;47.20;;;;;;5055215;28;19966;-62
2022/03/01 04:24:09;;;;;;;;;;;4.60;47.70;;;;;;5055617;28;19999;-63
2022/03/01 04:26:35;;;;;;;;;;;4.50;46.90;;;;;;5055216;28;19988;-62
2022/03/01 04:29:01;;;;;;;;;;;4.50;46.60;;;;;;5056047;28;19909;-61
2022/03/01 04:31:26;;;;;;;;;;;4.50;47.60;;;;;;5055023;28;20368;-61
2022/03/01 04:33:54;;;;;;;;;;;4.70;45.90;;;;;;5054777;28;19928;-68
2022/03/01 04:36:19;;;;;;;;;;;4.90;45.10;;;;;;5054467;28;19995;-62
2022/03/01 04:38:45;;;;;;;;;;;5.00;44.60;;;;;;5054951;28;20387;-61
2022/03/01 04:41:11;;;;;;;;;;;5.20;43.90;;;;;;5054940;28;19997;-61
2022/03/01 04:43:36;;;;;;;;;;;5.30;43.60;;;;;;5054659;28;20360;-61
2022/03/01 04:46:03;;;;;;;;;;;5.20;43.40;;;;;;5054513;28;19992;-61
2022/03/01 04:48:28;;;;;;;;;;;5.20;43.90;;;;;;5054541;28;19909;-60
2022/03/01 04:50:54;;;;;;;;;;;5.20;43.70;;;;;;5054443;28;19963;-60
2022/03/01 04:53:19;;;;;;;;;;;5.10;43.60;;;;;;5054436;28;20349;-60
2022/03/01 04:55:45;;;;;;;;;;;5.10;43.70;;;;;;5054612;28;19909;-61
2022/03/01 04:58:11;;;;;;;;;;;5.10;43.50;;;;;;5055126;28;19951;-60
2022/03/01 05:00:36;;;;;;;;;;;5.10;43.50;;;;;;5054436;28;19920;-60
2022/03/01 05:03:02;;;;;;;;;;;4.80;43.50;;;;;;5054222;28;19913;-61
2022/03/01 05:05:28;;;;;;;;;;;4.70;43.70;;;;;;5054142;28;19909;-60
2022/03/01 05:07:55;;;;;;;;;;;4.80;44.00;;;;;;5054322;28;19909;-61
2022/03/01 05:10:21;;;;;;;;;;;4.80;43.70;;;;;;5054111;28;19940;-61
2022/03/01 05:12:54;;;;;;;;;;;4.70;43.80;;;;;;5054218;28;19991;-60
2022/03/01 05:15:23;;;;;;;;;;;4.80;44.10;;;;;;5053571;28;20015;-60
2022/03/01 05:17:49;;;;;;;;;;;4.80;44.00;;;;;;5054405;28;20331;-60
2022/03/01 05:20:15;;;;;;;;;;;5.00;43.40;;;;;;5054075;28;19924;-62
2022/03/01 05:22:41;;;;;;;;;;;4.90;43.60;;;;;;5054311;28;19915;-60
2022/03/01 05:25:09;;;;;;;;;;;4.90;43.50;;;;;;5054199;28;19908;-61
2022/03/01 05:27:35;;;;;;;;;;;4.70;43.80;;;;;;5053709;28;19913;-60
2022/03/01 05:30:01;;;;;;;;;;;4.80;44.00;;;;;;5053557;28;20388;-62
2022/03/01 05:32:27;;;;;;;;;;;4.90;43.70;;;;;;5053766;28;19917;-60
2022/03/01 05:34:52;;;;;;;;;;;4.90;43.60;;;;;;5053883;28;19913;-60
2022/03/01 05:37:18;;;;;;;;;;;5.00;43.30;;;;;;5053838;28;19932;-61
2022/03/01 05:39:44;;;;;;;;;;;5.10;43.00;;;;;;5053609;28;19909;-60
2022/03/01 05:42:10;;;;;;;;;;;5.30;43.20;;;;;;5053683;28;20356;-60
2022/03/01 05:44:35;;;;;;;;;;;5.30;42.60;;;;;;5053675;28;19913;-61
2022/03/01 05:47:01;;;;;;;;;;;5.10;42.90;;;;;;5053493;28;19909;-61
2022/03/01 05:49:26;;;;;;;;;;;4.90;43.20;;;;;;5053703;28;19908;-63
2022/03/01 05:51:52;;;;;;;;;;;4.90;43.60;;;;;;5053656;28;19927;-61
2022/03/01 05:54:18;;;;;;;;;;;4.90;43.90;;;;;;5052327;28;19912;-63
2022/03/01 05:56:43;;;;;;;;;;;4.70;43.80;;;;;;5053317;28;19908;-60
2022/03/01 05:59:09;;;;;;;;;;;4.80;43.80;;;;;;5053414;28;19955;-60
2022/03/01 06:01:34;;;;;;;;;;;4.90;44.00;;;;;;5053231;28;20004;-60
2022/03/01 06:04:00;;;;;;;;;;;5.00;44.20;;;;;;5053385;28;19916;-60
2022/03/01 06:06:25;;;;;;;;;;;5.10;43.60;;;;;;5053594;28;20352;-60
2022/03/01 06:08:51;;;;;;;;;;;5.00;43.60;;;;;;5053364;28;19909;-60
2022/03/01 06:11:16;;;;;;;;;;;5.00;44.00;;;;;;5053338;28;19932;-64
2022/03/01 06:13:43;;;;;;;;;;;5.00;43.90;;;;;;5053167;28;19927;-60
2022/03/01 06:16:09;;;;;;;;;;;5.00;43.90;;;;;;5053213;28;19909;-61
2022/03/01 06:18:34;;;;;;;;;;;5.10;44.10;;;;;;5053233;28;19909;-61
2022/03/01 06:21:01;;;;;;;;;;;4.90;44.50;;;;;;5053084;28;20368;-60
2022/03/01 06:23:27;;;;;;;;;;;4.70;44.80;;;;;;5053026;28;19912;-60
2022/03/01 06:25:53;;;;;;;;;;;4.50;45.00;;;;;;5053009;28;19967;-60
2022/03/01 06:28:19;;;;;;;;;;;4.60;45.40;;;;;;5057213;28;20199;-61
2022/03/01 06:30:45;;;;;;;;;;;4.70;45.40;;;;;;5057272;28;19916;-62
2022/03/01 06:33:11;;;;;;;;;;;4.80;45.00;;;;;;5057184;28;20356;-61
2022/03/01 06:35:36;;;;;;;;;;;5.00;44.70;;;;;;5057157;28;19909;-61
2022/03/01 06:38:02;;;;;;;;;;;5.00;44.60;;;;;;5057234;28;19912;-67
2022/03/01 06:40:28;;;;;;;;;;;5.00;44.50;;;;;;5055861;28;19916;-61
2022/03/01 06:42:54;;;;;;;;;;;5.10;44.50;;;;;;5057127;28;20376;-60
2022/03/01 06:45:20;;;;;;;;;;;5.10;44.00;;;;;;5057171;28;20003;-60
2022/03/01 06:47:46;;;;;;;;;;;5.30;43.70;;;;;;5057257;28;19909;-62
2022/03/01 06:50:11;;;;;;;;;;;5.20;43.70;;;;;;5060161;28;20379;-61
2022/03/01 06:52:37;;;;;;;;;;;5.20;43.70;;;;;;5061115;28;19917;-60
2022/03/01 06:55:04;;;;;;;;;;;5.20;43.50;;;;;;5061995;28;19913;-61
2022/03/01 06:57:30;;;;;;;;;;;5.30;43.30;;;;;;5059103;28;19913;-60
2022/03/01 06:59:56;;;;;;;;;;;5.30;43.10;;;;;;5058756;28;19955;-60
2022/03/01 07:02:21;;;;;;;;;;;5.30;44.30;;;;;;5057469;28;20246;-58
2022/03/01 07:04:47;;;;;;;;;;;5.50;51.20;;;;;;5038941;28;20442;-60
2022/03/01 07:07:13;;;;;;;;;;;5.90;47.30;;;;;;5057004;28;19913;-62
2022/03/01 07:09:38;;;;;;;;;;;6.20;46.30;;;;;;5056852;28;19908;-59
2022/03/01 07:12:04;;;;;;;;;;;7.00;49.30;;;;;;5056620;28;19952;-58
2022/03/01 07:14:30;;;;;;;;;;;7.20;49.30;;;;;;5056552;28;20382;-59
2022/03/01 07:16:55;;;;;;;;;;;7.90;46.10;;;;;;5056745;28;19916;-60
2022/03/01 07:19:21;;;;;;;;;;;8.30;43.00;;;;;;5058135;28;20021;-60
2022/03/01 07:21:46;;;;;;;;;;;8.10;39.20;;;;;;5057251;28;19921;-60
2022/03/01 07:24:12;;;;;;;;;;;8.10;41.50;;;;;;5056603;28;19919;-59
2022/03/01 07:26:38;;;;;;;;;;;8.00;40.20;;;;;;5055828;28;20103;-63
2022/03/01 07:29:03;;;;;;;;;;;8.40;41.40;;;;;;5056098;28;19948;-60
2022/03/01 07:31:29;;;;;;;;;;;8.70;43.30;;;;;;5057472;28;19916;-60
2022/03/01 07:33:55;;;;;;;;;;;8.70;37.00;;;;;;5075414;28;19928;-61
2022/03/01 07:36:20;;;;;;;;;;;8.40;35.90;;;;;;5075322;28;20430;-57
2022/03/01 07:38:46;;;;;;;;;;;8.10;36.80;;;;;;5056972;28;19908;-59
2022/03/01 07:41:12;;;;;;;;;;;8.20;37.10;;;;;;5075284;28;19916;-59
2022/03/01 07:43:39;;;;;;;;;;;8.20;36.50;;;;;;5074290;28;19916;-58
2022/03/01 07:46:07;;;;;;;;;;;8.30;36.10;;;;;;5074508;28;19927;-58
2022/03/01 07:48:32;;;;;;;;;;;8.20;36.40;;;;;;5074655;28;19912;-59
2022/03/01 07:50:58;;;;;;;;;;;8.20;35.80;;;;;;5072160;28;20046;-63
2022/03/01 07:53:24;;;;;;;;;;;8.30;35.70;;;;;;5074395;28;20360;-60
2022/03/01 07:55:49;;;;;;;;;;;8.20;35.70;;;;;;5075067;28;20005;-64
2022/03/01 07:58:15;;;;;;;;;;;8.40;35.90;;;;;;5074825;28;19919;-64
2022/03/01 08:00:40;;;;;;;;;;;8.60;35.30;;;;;;5074599;28;19916;-63
2022/03/01 08:03:06;;;;;;;;;;;8.40;35.20;;;;;;5074618;28;19908;-66
2022/03/01 08:05:31;;;;;;;;;;;8.40;35.30;;;;;;5074777;28;19908;-64
2022/03/01 08:07:57;;;;;;;;;;;8.10;35.30;;;;;;5074651;28;19909;-63
2022/03/01 08:10:23;;;;;;;;;;;7.90;35.80;;;;;;5074714;28;19920;-66
2022/03/01 08:12:49;;;;;;;;;;;7.80;36.40;;;;;;5074478;28;19940;-69
2022/03/01 08:15:14;;;;;;;;;;;7.70;36.50;;;;;;5074597;28;19913;-62
2022/03/01 08:17:47;;;;;;;;;;;7.90;36.40;;;;;;5075657;28;19915;-64
2022/03/01 08:20:13;;;;;;;;;;;7.80;36.50;;;;;;5075603;28;19929;-61
2022/03/01 08:22:38;;;;;;;;;;;8.00;36.50;;;;;;5079145;28;20311;-66
2022/03/01 08:25:04;;;;;;;;;;;8.10;36.00;;;;;;5080075;28;19908;-65
2022/03/01 08:27:30;;;;;;;;;;;8.30;35.10;;;;;;5079288;28;19909;-61
2022/03/01 08:29:55;;;;;;;;;;;8.30;35.30;;;;;;5078431;28;20336;-62
2022/03/01 08:32:21;;;;;;;;;;;8.30;35.30;;;;;;5076515;28;20247;-63
2022/03/01 08:34:46;;;;;;;;;;;8.40;34.50;;;;;;5074224;28;19917;-64
2022/03/01 08:37:12;;;;;;;;;;;8.60;34.60;;;;;;5073850;28;19919;-63
2022/03/01 08:39:37;;;;;;;;;;;8.90;33.80;;;;;;5073985;28;19944;-66
2022/03/01 08:42:03;;;;;;;;;;;8.80;34.20;;;;;;5073995;28;20328;-66
2022/03/01 08:44:29;;;;;;;;;;;8.50;33.50;;;;;;5072130;28;20037;-65
2022/03/01 08:46:54;;;;;;;;;;;8.70;34.20;;;;;;5073415;28;19935;-64
2022/03/01 08:49:20;;;;;;;;;;;8.50;33.90;;;;;;5070309;28;20007;-65
2022/03/01 08:51:45;;;;;;;;;;;8.50;33.50;;;;;;5073584;28;20368;-63
2022/03/01 08:54:11;;;;;;;;;;;8.40;34.10;;;;;;5074187;28;19962;-64
2022/03/01 08:56:36;;;;;;;;;;;8.60;33.30;;;;;;5074411;28;19919;-63
2022/03/01 08:59:02;;;;;;;;;;;8.60;33.10;;;;;;5074531;28;19955;-61
2022/03/01 09:01:28;;;;;;;;;;;8.60;33.40;;;;;;5074216;28;19908;-67
2022/03/01 09:03:53;;;;;;;;;;;8.60;33.40;;;;;;5074045;28;20374;-62
2022/03/01 09:06:20;;;;;;;;;;;8.50;32.60;;;;;;5073938;28;19908;-66
2022/03/01 09:08:46;;;;;;;;;;;8.40;32.80;;;;;;5074514;28;19954;-62
2022/03/01 09:11:11;;;;;;;;;;;8.50;33.10;;;;;;5074275;28;20309;-61
2022/03/01 09:13:38;;;;;;;;;;;8.50;32.50;;;;;;5072676;28;19921;-61
2022/03/01 09:16:04;;;;;;;;;;;8.60;32.60;;;;;;5073797;28;19915;-61
2022/03/01 09:18:30;;;;;;;;;;;8.80;31.90;;;;;;5073296;28;19908;-62
2022/03/01 09:20:55;;;;;;;;;;;8.90;31.30;;;;;;5055179;28;19921;-65
2022/03/01 09:23:21;;;;;;;;;;;8.80;31.40;;;;;;5073410;28;19959;-67
2022/03/01 09:25:46;;;;;;;;;;;9.00;31.10;;;;;;5072773;28;19920;-69
2022/03/01 09:28:12;;;;;;;;;;;9.00;32.00;;;;;;5073084;28;19948;-65
2022/03/01 09:30:37;;;;;;;;;;;8.90;31.80;;;;;;5054851;28;19909;-64
2022/03/01 09:33:03;;;;;;;;;;;9.30;31.40;;;;;;5072794;28;19932;-61
2022/03/01 09:35:29;;;;;;;;;;;9.40;31.40;;;;;;5072865;28;19909;-61
2022/03/01 09:37:54;;;;;;;;;;;9.50;30.10;;;;;;5072850;28;19917;-66
2022/03/01 09:40:20;;;;;;;;;;;9.50;31.80;;;;;;5073887;28;20424;-69
2022/03/01 09:42:45;;;;;;;;;;;8.90;30.00;;;;;;5073535;28;19908;-64
2022/03/01 09:45:12;;;;;;;;;;;8.90;30.50;;;;;;5055362;28;19908;-61
2022/03/01 09:47:38;;;;;;;;;;;9.00;31.50;;;;;;5073719;28;20003;-61
2022/03/01 09:50:04;;;;;;;;;;;8.90;30.10;;;;;;5073711;28;19951;-58
2022/03/01 09:52:30;;;;;;;;;;;8.80;30.60;;;;;;5072733;28;20298;-60
2022/03/01 09:54:56;;;;;;;;;;;8.90;30.60;;;;;;5072662;28;19961;-62
2022/03/01 09:57:21;;;;;;;;;;;9.00;30.60;;;;;;5072520;28;20003;-61
2022/03/01 09:59:47;;;;;;;;;;;9.10;30.30;;;;;;5072624;28;19913;-59
2022/03/01 10:02:12;;;;;;;;;;;9.20;30.00;;;;;;5072495;28;20333;-59
2022/03/01 10:04:49;;;;;;;;;;;9.10;30.00;;;;;;5072944;28;19999;-60
2022/03/01 10:07:20;;;;;;;;;;;9.00;29.70;;;;;;5073222;28;19956;-61
2022/03/01 10:09:45;;;;;;;;;;;9.10;30.40;;;;;;5073182;28;19914;-64
2022/03/01 10:12:11;;;;;;;;;;;9.30;31.30;;;;;;5073179;28;19920;-66
2022/03/01 10:14:38;;;;;;;;;;;9.40;30.20;;;;;;5072969;28;20020;-66
2022/03/01 10:17:14;;;;;;;;;;;9.40;29.80;;;;;;5073564;28;19913;-67
2022/03/01 10:19:39;;;;;;;;;;;9.50;30.00;;;;;;5073195;28;20348;-64
2022/03/01 10:22:05;;;;;;;;;;;9.60;30.00;;;;;;5073280;28;19961;-60
2022/03/01 10:24:31;;;;;;;;;;;9.80;29.90;;;;;;5073008;28;19954;-63
2022/03/01 10:26:57;;;;;;;;;;;9.90;29.00;;;;;;5073390;28;20252;-62
2022/03/01 10:29:27;;;;;;;;;;;9.80;29.30;;;;;;5073528;28;19920;-62
2022/03/01 10:31:52;;;;;;;;;;;9.90;29.10;;;;;;5073381;28;20391;-60
2022/03/01 10:34:18;;;;;;;;;;;9.70;28.30;;;;;;5073271;28;20003;-62
2022/03/01 10:36:48;;;;;;;;;;;9.50;28.80;;;;;;5054853;28;20005;-60
2022/03/01 10:39:13;;;;;;;;;;;9.50;28.90;;;;;;5072904;28;19942;-60
2022/03/01 10:41:40;;;;;;;;;;;9.40;29.00;;;;;;5072909;28;19905;-61
2022/03/01 10:44:11;;;;;;;;;;;9.70;28.90;;;;;;5073051;28;19908;-60
2022/03/01 10:46:38;;;;;;;;;;;9.80;29.00;;;;;;5073065;28;19931;-62
2022/03/01 10:49:05;;;;;;;;;;;9.60;28.00;;;;;;5072834;28;19913;-60
2022/03/01 10:51:32;;;;;;;;;;;9.80;28.70;;;;;;5073020;28;19931;-60
2022/03/01 10:54:00;;;;;;;;;;;9.70;28.30;;;;;;5072679;28;19923;-61
2022/03/01 10:56:36;;;;;;;;;;;10.00;29.10;;;;;;5072905;28;19944;-60
2022/03/01 10:59:03;;;;;;;;;;;10.30;29.00;;;;;;5072862;28;19916;-59
2022/03/01 11:01:28;;;;;;;;;;;10.30;28.10;;;;;;5072633;28;20356;-60
2022/03/01 11:03:54;;;;;;;;;;;10.30;28.30;;;;;;5072767;28;19915;-60
2022/03/01 11:06:19;;;;;;;;;;;10.50;28.40;;;;;;5072771;28;19916;-61
2022/03/01 11:08:45;;;;;;;;;;;10.70;28.60;;;;;;5073023;28;19991;-60
2022/03/01 11:11:11;;;;;;;;;;;10.80;27.80;;;;;;5072829;28;20319;-60
2022/03/01 11:13:39;;;;;;;;;;;10.70;26.80;;;;;;5074664;28;19920;-62
2022/03/01 11:16:07;;;;;;;;;;;10.50;27.00;;;;;;5058487;28;19932;-61
2022/03/01 11:18:38;;;;;;;;;;;10.30;27.40;;;;;;5076345;28;20264;-60
2022/03/01 11:21:05;;;;;;;;;;;9.90;27.90;;;;;;5076214;28;19925;-60
2022/03/01 11:23:31;;;;;;;;;;;10.10;27.90;;;;;;5076435;28;19915;-61
2022/03/01 11:26:06;;;;;;;;;;;10.10;28.60;;;;;;5076501;28;20344;-64
2022/03/01 11:28:40;;;;;;;;;;;10.40;28.20;;;;;;5076431;28;19909;-65
2022/03/01 11:31:19;;;;;;;;;;;10.40;27.40;;;;;;5076433;28;19912;-61
2022/03/01 11:34:02;;;;;;;;;;;10.60;27.50;;;;;;5076583;28;19916;-62
2022/03/01 11:36:32;;;;;;;;;;;10.20;27.40;;;;;;5076947;28;20013;-65
2022/03/01 11:39:08;;;;;;;;;;;10.20;28.90;;;;;;5079752;28;19951;-65
2022/03/01 11:41:42;;;;;;;;;;;10.30;28.50;;;;;;5081801;28;19951;-69
2022/03/01 11:44:08;;;;;;;;;;;10.50;28.60;;;;;;5083995;28;20283;-61
2022/03/01 11:46:42;;;;;;;;;;;10.90;28.60;;;;;;5078335;28;19909;-60
2022/03/01 11:49:07;;;;;;;;;;;11.00;28.10;;;;;;5077678;28;19909;-59
2022/03/01 11:51:35;;;;;;;;;;;11.30;27.90;;;;;;5076813;28;19936;-69
2022/03/01 11:54:06;;;;;;;;;;;11.30;27.50;;;;;;5073474;28;19917;-62
2022/03/01 11:56:35;;;;;;;;;;;11.00;28.30;;;;;;5056335;28;19916;-59
2022/03/01 11:59:08;;;;;;;;;;;11.30;28.20;;;;;;5075337;28;19908;-63
2022/03/01 12:01:34;;;;;;;;;;;11.30;27.80;;;;;;5056140;28;20272;-60
2022/03/01 12:04:02;;;;;;;;;;;11.20;27.70;;;;;;5055100;28;19909;-60
2022/03/01 12:06:28;;;;;;;;;;;11.10;27.90;;;;;;5055777;28;19915;-62
2022/03/01 12:08:58;;;;;;;;;;;10.70;27.60;;;;;;5056893;28;19913;-60
2022/03/01 12:11:37;;;;;;;;;;;10.30;27.60;;;;;;5055369;28;20365;-61
2022/03/01 12:14:04;;;;;;;;;;;10.30;28.10;;;;;;5059065;28;19921;-61
2022/03/01 12:16:31;;;;;;;;;;;10.70;28.30;;;;;;5075241;28;19930;-73
2022/03/01 12:19:05;;;;;;;;;;;10.90;27.80;;;;;;5074583;28;19923;-60
2022/03/01 12:21:30;;;;;;;;;;;10.80;27.20;;;;;;5056541;28;20003;-59
2022/03/01 12:23:56;;;;;;;;;;;10.90;27.50;;;;;;5073704;28;20038;-60
2022/03/01 12:26:25;;;;;;;;;;;11.20;27.80;;;;;;5074755;28;19914;-60
2022/03/01 12:28:51;;;;;;;;;;;11.00;27.10;;;;;;5075369;28;20379;-60
2022/03/01 12:31:17;;;;;;;;;;;10.60;27.90;;;;;;5075136;28;19912;-61
2022/03/01 12:33:48;;;;;;;;;;;10.70;28.00;;;;;;5074709;28;19921;-62
2022/03/01 12:36:21;;;;;;;;;;;10.80;27.40;;;;;;5074710;28;19909;-65
2022/03/01 12:38:59;;;;;;;;;;;10.90;27.50;;;;;;5074536;28;19951;-62
2022/03/01 12:41:25;;;;;;;;;;;11.10;27.00;;;;;;5074451;28;20011;-68
2022/03/01 12:43:52;;;;;;;;;;;11.30;26.90;;;;;;5074281;28;19960;-64
2022/03/01 12:46:18;;;;;;;;;;;11.40;27.10;;;;;;5074274;28;19955;-62
2022/03/01 12:48:43;;;;;;;;;;;11.60;27.40;;;;;;5074428;28;19934;-67
2022/03/01 12:51:09;;;;;;;;;;;11.70;27.00;;;;;;5073917;28;19987;-66
2022/03/01 12:53:35;;;;;;;;;;;11.80;26.60;;;;;;5073946;28;20003;-63
2022/03/01 12:56:00;;;;;;;;;;;11.50;27.10;;;;;;5073946;28;19954;-63
2022/03/01 12:58:29;;;;;;;;;;;11.30;27.20;;;;;;5073960;28;19908;-63
2022/03/01 13:01:05;;;;;;;;;;;11.20;27.30;;;;;;5073940;28;19909;-60
2022/03/01 13:03:31;;;;;;;;;;;11.30;27.80;;;;;;5073870;28;20007;-60
2022/03/01 13:06:04;;;;;;;;;;;11.40;27.70;;;;;;5073903;28;19971;-64
2022/03/01 13:08:37;;;;;;;;;;;11.40;27.20;;;;;;5073987;28;20050;-61
2022/03/01 13:11:08;;;;;;;;;;;11.40;26.50;;;;;;5073863;28;19913;-61
2022/03/01 13:13:41;;;;;;;;;;;11.30;27.30;;;;;;5073800;28;19928;-58
2022/03/01 13:16:07;;;;;;;;;;;11.40;26.90;;;;;;5055827;28;19909;-59
2022/03/01 13:18:32;;;;;;;;;;;11.40;27.40;;;;;;5073621;28;19912;-59
2022/03/01 13:20:58;;;;;;;;;;;11.00;31.30;;;;;;5072924;28;19928;-59
2022/03/01 13:23:31;;;;;;;;;;;11.20;32.70;;;;;;5070601;28;19908;-61
2022/03/01 13:25:57;;;;;;;;;;;11.40;32.60;;;;;;5072684;28;19912;-61
2022/03/01 13:28:30;;;;;;;;;;;11.50;32.80;;;;;;5052434;28;19920;-58
2022/03/01 13:30:56;;;;;;;;;;;11.50;33.20;;;;;;5073118;28;20271;-58
2022/03/01 13:33:25;;;;;;;;;;;11.30;34.20;;;;;;5072837;28;19916;-58
2022/03/01 13:35:50;;;;;;;;;;;11.30;33.70;;;;;;5072443;28;19913;-57
2022/03/01 13:38:18;;;;;;;;;;;10.70;35.20;;;;;;5072606;28;19909;-60
2022/03/01 13:40:44;;;;;;;;;;;10.80;35.40;;;;;;5072648;28;19909;-62
2022/03/01 13:43:13;;;;;;;;;;;10.60;34.60;;;;;;5049358;28;19908;-58
2022/03/01 13:45:41;;;;;;;;;;;10.30;31.70;;;;;;5069765;28;19931;-61
2022/03/01 13:48:11;;;;;;;;;;;10.20;32.80;;;;;;5072330;28;20383;-58
2022/03/01 13:50:37;;;;;;;;;;;10.40;34.50;;;;;;5072546;28;19916;-58
2022/03/01 13:53:19;;;;;;;;;;;10.60;37.50;;;;;;5072184;28;19920;-60
2022/03/01 13:55:46;;;;;;;;;;;10.40;39.60;;;;;;5072308;28;19972;-58
2022/03/01 13:58:13;;;;;;;;;;;10.50;38.70;;;;;;5072205;28;20326;-61
2022/03/01 14:00:52;;;;;;;;;;;10.70;36.40;;;;;;5053767;28;19912;-63
2022/03/01 14:03:21;;;;;;;;;;;10.90;35.40;;;;;;5072446;28;19915;-61
2022/03/01 14:05:57;;;;;;;;;;;11.00;34.80;;;;;;5072426;28;20000;-63
2022/03/01 14:08:23;;;;;;;;;;;11.20;34.80;;;;;;5072420;28;20417;-67
2022/03/01 14:10:53;;;;;;;;;;;11.20;36.20;;;;;;5054915;28;20280;-60
2022/03/01 14:13:21;;;;;;;;;;;11.30;36.30;;;;;;5072216;28;20318;-59
2022/03/01 14:15:50;;;;;;;;;;;11.10;35.90;;;;;;5072427;28;19931;-61
2022/03/01 14:18:16;;;;;;;;;;;10.60;35.10;;;;;;5073768;28;19958;-61
2022/03/01 14:20:42;;;;;;;;;;;10.60;35.80;;;;;;5059947;28;19970;-61
2022/03/01 14:23:08;;;;;;;;;;;10.40;34.70;;;;;;5035104;28;19909;-62